Time;durP1;ratioP1;P1;durP2;ratioP2;P2;SDS_P1;SDS_P2;PMS_P1;PMS_P2;Temp;Humidity;BMP_temperature;BMP_pressure;BME280_temperature;BME280_humidity;BME280_pressure;Samples;Min_cycle;Max_cycle;Signal;HPM_P1;HPM_P2
2022/06/03 00:01:48;;;;;;;4.00;2.20;;;;;;;8.19;92.52;101471.64;107788;1281;60519;-86
2022/06/03 00:05:03;;;;;;;3.30;2.50;;;;;;;8.15;93.27;101471.10;107856;1281;75336;-86
2022/06/03 00:07:50;;;;;;;3.60;2.60;;;;;;;8.12;93.72;101472.42;107582;1281;71596;-85
2022/06/03 00:10:38;;;;;;;4.90;3.10;;;;;;;8.11;94.31;101470.76;107757;1281;74413;-85
2022/06/03 00:13:26;;;;;;;4.50;2.60;;;;;;;8.10;94.52;101472.62;107768;1281;61584;-85
2022/06/03 00:16:20;;;;;;;3.70;2.80;;;;;;;8.08;94.54;101474.23;107557;1282;62943;-85
2022/06/03 00:19:23;;;;;;;4.30;3.00;;;;;;;8.06;94.81;101471.53;107584;1281;76342;-86
2022/06/03 00:22:05;;;;;;;3.70;2.50;;;;;;;8.03;94.95;101469.53;107824;1281;72339;-85
2022/06/03 00:24:50;;;;;;;5.00;2.70;;;;;;;8.01;94.62;101472.57;107807;1281;74371;-86
2022/06/03 00:27:52;;;;;;;3.30;2.40;;;;;;;7.98;94.60;101475.12;107782;1281;61541;-85
2022/06/03 00:30:47;;;;;;;2.80;2.20;;;;;;;7.96;94.90;101478.30;107680;1281;60311;-85
2022/06/03 00:33:49;;;;;;;;;;;;;;;7.92;95.25;101476.38;107823;1281;75297;-85
2022/06/03 00:36:39;;;;;;;6.10;3.70;;;;;;;7.87;95.06;101470.86;107255;1282;71495;-85
2022/06/03 00:39:55;;;;;;;6.00;3.60;;;;;;;7.84;95.53;101472.34;107612;1281;73122;-85
2022/06/03 00:43:37;;;;;;;5.10;3.30;;;;;;;7.81;95.75;101470.55;106947;1287;62982;-85
2022/06/03 00:47:13;;;;;;;;;;;;;;;;;;;;;
2022/06/03 00:50:12;;;;;;;4.20;3.00;;;;;;;7.72;95.66;101472.66;107736;1281;74981;-86
2022/06/03 00:52:54;;;;;;;4.50;2.60;;;;;;;7.69;96.03;101472.77;107574;1281;71633;-85
2022/06/03 00:56:12;;;;;;;;;;;;;;;;;;;;;
2022/06/03 00:59:30;;;;;;;;;;;;;;;;;;;;;
2022/06/03 01:02:47;;;;;;;4.80;2.90;;;;;;;7.58;96.51;101457.74;107737;1281;60652;-85
2022/06/03 01:05:53;;;;;;;3.70;2.50;;;;;;;7.55;96.65;101460.13;107539;1282;75377;-86
2022/06/03 01:09:13;;;;;;;3.10;2.30;;;;;;;7.52;97.07;101457.55;107743;1281;71539;-87
2022/06/03 01:11:43;;;;;;;5.00;2.60;;;;;;;7.49;97.63;101453.80;107701;1281;73038;-86
2022/06/03 01:14:31;;;;;;;4.00;2.30;;;;;;;7.45;97.19;101452.55;107607;1281;61735;-86
2022/06/03 01:17:27;;;;;;;3.40;2.50;;;;;;;7.42;97.35;101447.73;107684;1281;60858;-86
2022/06/03 01:20:15;;;;;;;;;;;;;;;7.38;97.48;101446.14;107486;1282;75023;-86
2022/06/03 01:23:39;;;;;;;4.70;2.40;;;;;;;7.34;97.89;101448.23;107656;1281;72351;-86
2022/06/03 01:27:15;;;;;;;3.30;2.60;;;;;;;7.30;98.11;101447.50;107762;1281;74064;-86
2022/06/03 01:30:25;;;;;;;3.80;2.20;;;;;;;7.27;98.39;101443.81;107503;1281;61550;-86
2022/06/03 01:33:14;;;;;;;2.90;2.10;;;;;;;7.23;98.63;101443.59;107446;1282;59379;-86
2022/06/03 01:36:29;;;;;;;3.50;2.70;;;;;;;7.19;98.52;101440.56;107736;1281;78249;-85
2022/06/03 01:39:49;;;;;;;3.70;2.30;;;;;;;7.16;99.02;101438.58;107784;1281;72617;-85
2022/06/03 01:42:15;;;;;;;5.40;3.10;;;;;;;7.12;98.96;101444.38;107768;1281;75408;-86
2022/06/03 01:45:04;;;;;;;3.30;2.30;;;;;;;7.10;99.15;101445.10;107629;1281;62671;-86
2022/06/03 01:48:23;;;;;;;4.10;2.90;;;;;;;7.07;99.31;101448.36;107798;1281;60274;-85
2022/06/03 01:51:39;;;;;;;3.50;2.40;;;;;;;7.04;99.24;101447.19;107285;1282;76284;-85
2022/06/03 01:55:16;;;;;;;4.10;2.80;;;;;;;7.01;99.56;101439.19;107569;1282;71350;-85
2022/06/03 01:58:25;;;;;;;3.30;2.60;;;;;;;6.96;99.57;101435.05;107438;1284;73833;-85
2022/06/03 02:01:52;;;;;;;;;;;;;;;;;;;;;
2022/06/03 02:05:02;;;;;;;3.30;2.40;;;;;;;6.89;99.87;101442.13;107494;1281;61028;-85
2022/06/03 02:08:32;;;;;;;4.60;3.10;;;;;;;6.84;99.92;101433.92;107655;1281;76533;-85
2022/06/03 02:11:12;;;;;;;3.50;2.40;;;;;;;6.82;99.85;101434.33;107556;1281;71491;-85
2022/06/03 02:14:22;;;;;;;3.90;2.60;;;;;;;6.78;99.97;101432.86;107381;1282;74379;-85
2022/06/03 02:17:24;;;;;;;4.00;3.00;;;;;;;6.78;100.00;101432.72;107494;1282;62257;-85
2022/06/03 02:20:26;;;;;;;6.20;2.70;;;;;;;6.76;100.00;101430.08;107755;1281;60427;-86
2022/06/03 02:23:33;;;;;;;4.80;3.40;;;;;;;6.74;100.00;101431.30;107774;1281;76396;-85
2022/06/03 02:26:21;;;;;;;4.00;2.40;;;;;;;6.72;100.00;101437.58;107850;1281;72360;-85
2022/06/03 02:33:17;;;;;;;;;;;;;;;;;;;;;
2022/06/03 02:36:01;;;;;;;;;;;;;;;;;;;;;
2022/06/03 02:39:01;;;;;;;4.80;3.10;;;;;;;6.64;100.00;101437.42;107623;1281;75520;-85
2022/06/03 02:42:39;;;;;;;;;;;;;;;;;;;;;
2022/06/03 02:46:02;;;;;;;;;;;;;;;;;;;;;
2022/06/03 02:49:28;;;;;;;;;;;;;;;;;;;;;
2022/06/03 02:52:25;;;;;;;4.60;3.10;;;;;;;6.53;100.00;101432.35;107100;1287;60627;-85
2022/06/03 02:55:58;;;;;;;;;;;;;;;;;;;;;
2022/06/03 02:59:33;;;;;;;4.40;3.30;;;;;;;6.49;100.00;101426.05;106874;1287;72973;-85
2022/06/03 03:02:57;;;;;;;7.10;3.50;;;;;;;6.47;100.00;101424.84;107072;1281;75050;-86
2022/06/03 03:06:35;;;;;;;;;;;;;;;;;;;;;
2022/06/03 03:09:56;;;;;;;;;;;;;;;;;;;;;
2022/06/03 03:13:16;;;;;;;4.60;3.50;;;;;;;6.38;100.00;101433.15;108067;1281;75333;-85
2022/06/03 03:16:40;;;;;;;4.50;3.00;;;;;;;6.37;100.00;101437.09;107585;1282;73414;-85
2022/06/03 03:20:20;;;;;;;4.20;2.80;;;;;;;6.37;100.00;101442.37;106488;1290;73846;-85
2022/06/03 03:23:27;;;;;;;;;;;;;;;;;;;;;
2022/06/03 03:26:50;;;;;;;;;;;;;;;;;;;;;
2022/06/03 03:30:38;;;;;;;4.30;2.80;;;;;;;6.35;100.00;101426.18;107676;1281;74642;-85
2022/06/03 03:33:54;;;;;;;6.20;4.10;;;;;;;6.36;100.00;101426.31;107503;1281;72762;-85
2022/06/03 03:37:09;;;;;;;4.30;3.60;;;;;;;6.37;100.00;101429.91;107625;1281;72860;-84
2022/06/03 03:40:09;;;;;;;4.40;2.60;;;;;;;6.37;100.00;101429.19;107693;1281;64735;-85
2022/06/03 03:42:51;;;;;;;5.00;3.50;;;;;;;6.39;100.00;101428.45;107661;1281;60730;-85
2022/06/03 03:46:11;;;;;;;3.40;3.00;;;;;;;6.41;100.00;101427.27;107696;1281;76447;-85
2022/06/03 03:49:13;;;;;;;8.20;4.10;;;;;;;6.44;100.00;101426.99;107559;1281;70337;-85
2022/06/03 03:52:22;;;;;;;5.10;3.60;;;;;;;6.49;100.00;101435.20;107598;1281;73194;-82
2022/06/03 03:55:38;;;;;;;4.60;3.30;;;;;;;6.54;100.00;101438.63;107777;1281;60510;-83
2022/06/03 03:58:54;;;;;;;;;;;;;;;6.61;100.00;101440.66;107690;1281;61129;-83
2022/06/03 04:01:52;;;;;;;6.70;4.20;;;;;;;6.68;100.00;101442.92;107500;1281;75046;-84
2022/06/03 04:05:31;;;;;;;4.80;4.00;;;;;;;6.73;100.00;101444.05;107516;1282;70995;-84
2022/06/03 04:09:15;;;;;;;5.40;4.10;;;;;;;6.81;100.00;101437.95;107602;1281;74435;-85
2022/06/03 04:12:56;;;;;;;;;;;;;;;;;;;;;
2022/06/03 04:16:09;;;;;;;4.70;3.90;;;;;;;7.01;100.00;101432.66;107379;1281;59060;-85
2022/06/03 04:18:59;;;;;;;5.50;4.40;;;;;;;7.11;100.00;101430.91;107520;1282;75384;-84
2022/06/03 04:22:17;;;;;;;;;;;;;;;;;;;;;
2022/06/03 04:25:11;;;;;;;6.90;5.30;;;;;;;7.32;100.00;101433.13;107543;1282;74392;-84
2022/06/03 04:28:03;;;;;;;7.70;4.90;;;;;;;7.43;100.00;101434.31;107636;1281;61262;-82
2022/06/03 04:31:22;;;;;;;6.40;4.20;;;;;;;7.55;100.00;101442.30;107761;1281;61797;-81
2022/06/03 04:33:54;;;;;;;5.80;3.90;;;;;;;7.69;100.00;101441.29;107528;1282;74401;-84
2022/06/03 04:36:33;;;;;;;6.00;4.60;;;;;;;7.80;100.00;101437.29;107807;1281;72743;-83
2022/06/03 04:39:58;;;;;;;7.70;4.50;;;;;;;7.94;100.00;101440.24;107754;1278;73465;-83
2022/06/03 04:43:08;;;;;;;6.20;4.80;;;;;;;8.12;100.00;101439.88;106961;1287;62307;-82
2022/06/03 04:45:54;;;;;;;9.40;5.90;;;;;;;8.28;100.00;101437.15;106944;1288;61820;-82
2022/06/03 04:49:12;;;;;;;6.50;4.20;;;;;;;8.43;100.00;101434.20;107745;1281;75327;-82
2022/06/03 04:52:06;;;;;;;6.30;4.50;;;;;;;8.60;100.00;101434.75;107739;1281;71622;-82
2022/06/03 04:55:11;;;;;;;5.70;4.60;;;;;;;8.76;100.00;101435.38;107619;1281;76445;-82
2022/06/03 04:58:18;;;;;;;8.90;6.20;;;;;;;8.92;100.00;101435.56;107535;1282;62307;-81
2022/06/03 05:01:18;;;;;;;4.80;3.60;;;;;;;9.08;100.00;101431.41;107744;1281;60804;-81
2022/06/03 05:04:22;;;;;;;7.10;5.40;;;;;;;9.24;100.00;101429.34;107708;1281;75935;-82
2022/06/03 05:07:40;;;;;;;5.90;4.50;;;;;;;9.41;99.95;101429.34;107593;1281;71550;-82
2022/06/03 05:10:36;;;;;;;10.90;6.70;;;;;;;9.59;99.55;101424.59;107398;1281;73049;-81
2022/06/03 05:13:28;;;;;;;6.00;5.30;;;;;;;9.75;99.15;101427.77;107666;1281;60961;-82
2022/06/03 05:16:54;;;;;;;;;;;;;;;;;;;;;
2022/06/03 05:19:39;;;;;;;6.70;5.50;;;;;;;10.11;97.80;101418.55;107692;1281;76565;-83
2022/06/03 05:22:48;;;;;;;6.50;5.20;;;;;;;10.27;97.15;101421.89;107628;1282;71338;-83
2022/06/03 05:25:28;;;;;;;7.00;5.00;;;;;;;10.45;96.53;101425.45;107728;1281;72981;-83
2022/06/03 05:28:32;;;;;;;6.30;5.40;;;;;;;10.60;96.00;101417.71;107588;1281;62303;-82
2022/06/03 05:31:20;;;;;;;10.70;7.90;;;;;;;10.81;95.16;101410.41;107391;1281;60446;-82
2022/06/03 05:34:17;;;;;;;8.10;5.80;;;;;;;11.05;93.94;101401.76;107524;1282;75046;-82
2022/06/03 05:37:11;;;;;;;7.80;5.30;;;;;;;11.19;92.86;101406.29;107705;1281;71566;-80
2022/06/03 05:40:37;;;;;;;5.20;4.60;;;;;;;11.35;92.51;101409.20;107497;1284;72942;-79
2022/06/03 05:43:52;;;;;;;5.70;3.40;;;;;;;11.56;91.80;101411.59;107237;1285;62752;-80
2022/06/03 05:46:27;;;;;;;5.90;4.30;;;;;;;11.73;89.66;101413.67;107243;1287;60584;-79
2022/06/03 05:49:06;;;;;;;;;;;;;;;11.90;89.32;101414.02;107456;1282;74894;-79
2022/06/03 05:51:43;;;;;;;;;;;;;;;12.04;88.36;101412.80;107677;1283;71336;-79
2022/06/03 05:54:17;;;;;;;;;;;;;;;12.20;87.92;101415.02;107857;1281;74214;-80
2022/06/03 05:56:52;;;;;;;;;;;;;;;12.36;87.54;101416.48;108117;1281;61225;-81
2022/06/03 05:59:38;;;;;;;;;;;;;;;12.51;87.01;101425.63;108189;1281;61407;-80
2022/06/03 06:02:28;;;;;;;;;;;;;;;12.65;85.77;101419.63;108133;1281;74997;-82
2022/06/03 06:05:10;;;;;;;;;;;;;;;12.76;84.97;101410.55;107771;1282;71752;-83
2022/06/03 06:07:39;;;;;;;;;;;;;;;12.84;84.93;101403.62;107907;1281;73607;-82
2022/06/03 06:10:14;;;;;;;;;;;;;;;13.01;84.36;101414.48;107835;1281;63693;-81
2022/06/03 06:12:59;;;;;;;;;;;;;;;13.15;83.61;101415.90;107921;1281;60349;-81
2022/06/03 06:15:41;;;;;;;;;;;;;;;13.31;82.62;101414.92;107999;1284;75075;-81
2022/06/03 06:18:34;;;;;;;;;;;;;;;13.42;81.73;101414.95;108041;1281;71515;-80
2022/06/03 06:21:19;;;;;;;;;;;;;;;13.54;80.38;101417.28;107941;1281;72998;-81
2022/06/03 06:24:07;;;;;;;;;;;;;;;13.66;79.90;101414.98;107844;1280;61343;-81
2022/06/03 06:26:55;;;;;;;;;;;;;;;13.81;79.12;101419.48;107767;1281;61489;-80
2022/06/03 06:29:51;;;;;;;;;;;;;;;13.96;78.36;101418.58;107971;1281;75998;-80
2022/06/03 06:32:20;;;;;;;;;;;;;;;14.14;77.03;101415.70;107788;1282;71391;-80
2022/06/03 06:34:47;;;;;;;;;;;;;;;14.27;76.33;101407.12;107854;1281;72803;-80
2022/06/03 06:37:52;;;;;;;;;;;;;;;14.37;74.55;101397.55;107726;1282;63441;-80
2022/06/03 06:40:39;;;;;;;;;;;;;;;14.51;74.19;101391.80;107194;1287;60082;-80
2022/06/03 06:43:09;;;;;;;;;;;;;;;14.64;73.07;101390.42;107214;1287;76291;-81
2022/06/03 06:45:42;;;;;;;;;;;;;;;14.78;73.04;101389.89;107617;1281;71558;-82
2022/06/03 06:48:27;;;;;;;3.40;2.00;;;;;;;14.94;72.89;101383.80;107725;1281;73977;-81
2022/06/03 06:51:07;;;;;;;3.10;2.20;;;;;;;15.11;71.72;101383.15;107719;1282;62409;-79
2022/06/03 06:54:04;;;;;;;2.80;2.20;;;;;;;15.26;71.13;101383.85;107726;1282;59034;-82
2022/06/03 06:56:41;;;;;;;8.50;5.10;;;;;;;15.43;70.65;101392.01;107651;1282;75036;-80
2022/06/03 06:59:19;;;;;;;6.40;3.10;;;;;;;15.57;69.67;101392.27;107558;1281;71430;-80
2022/06/03 07:01:59;;;;;;;4.30;2.40;;;;;;;15.72;69.62;101389.23;107801;1282;74184;-81
2022/06/03 07:04:34;;;;;;;5.30;1.90;;;;;;;15.88;68.59;101388.88;107931;1281;63721;-81
2022/06/03 07:07:16;;;;;;;4.50;2.10;;;;;;;15.97;66.54;101387.13;107908;1281;62316;-81
2022/06/03 07:10:06;;;;;;;4.00;2.20;;;;;;;16.11;67.49;101388.60;107926;1281;74933;-81
2022/06/03 07:12:42;;;;;;;2.90;1.90;;;;;;;16.26;66.26;101387.69;107930;1281;71458;-80
2022/06/03 07:15:49;;;;;;;3.10;1.80;;;;;;;16.42;66.09;101387.46;107810;1282;74047;-81
2022/06/03 07:21:53;;;;;;;4.30;2.30;;;;;;;16.80;63.79;101387.30;107753;1283;60624;-80
2022/06/03 07:24:21;;;;;;;;;;;;;;;16.94;62.21;101383.30;108008;1281;75121;-80
2022/06/03 07:26:54;;;;;;;3.20;2.20;;;;;;;17.01;61.33;101377.39;107911;1281;72934;-80
2022/06/03 07:29:33;;;;;;;20.90;14.00;;;;;;;17.11;60.60;101375.89;107895;1281;73041;-80
2022/06/03 07:32:22;;;;;;;7.20;3.60;;;;;;;17.22;60.58;101370.52;107918;1281;61718;-80
2022/06/03 07:34:54;;;;;;;4.00;1.60;;;;;;;17.31;59.82;101371.05;107928;1281;60688;-81
2022/06/03 07:37:45;;;;;;;5.70;3.00;;;;;;;17.40;59.46;101370.73;107958;1281;74874;-81
2022/06/03 07:40:18;;;;;;;15.00;9.70;;;;;;;17.49;58.76;101366.66;107636;1281;72964;-81
2022/06/03 07:43:23;;;;;;;6.50;2.90;;;;;;;17.60;59.49;101358.21;107959;1281;74010;-80
2022/06/03 07:46:23;;;;;;;3.90;1.80;;;;;;;17.79;59.14;101356.41;107360;1284;62184;-81
2022/06/03 07:48:51;;;;;;;3.30;1.70;;;;;;;17.91;57.64;101356.59;107512;1284;61633;-81
2022/06/03 07:51:26;;;;;;;3.40;1.50;;;;;;;18.03;57.27;101355.05;107897;1282;75114;-81
2022/06/03 07:54:11;;;;;;;2.90;1.70;;;;;;;18.17;57.41;101352.94;107869;1281;72751;-81
2022/06/03 07:56:39;;;;;;;2.80;1.10;;;;;;;18.29;57.03;101347.63;107762;1282;73083;-81
2022/06/03 07:59:20;;;;;;;3.90;1.50;;;;;;;18.42;56.27;101346.92;108143;1281;60423;-81
2022/06/03 08:02:17;;;;;;;65.90;45.00;;;;;;;18.54;56.11;101347.42;108475;1281;60574;-81
2022/06/03 08:04:59;;;;;;;3.90;1.20;;;;;;;18.69;55.36;101342.86;107866;1282;73475;-81
2022/06/03 08:13:04;;;;;;;4.50;2.50;;;;;;;18.99;53.40;101331.39;107941;1281;60829;-81
2022/06/03 08:15:35;;;;;;;2.80;1.60;;;;;;;19.09;53.15;101327.85;107920;1281;60590;-81
2022/06/03 08:18:07;;;;;;;4.10;1.90;;;;;;;19.20;52.88;101328.16;107941;1281;75554;-81
2022/06/03 08:20:41;;;;;;;20.20;13.10;;;;;;;19.26;52.73;101329.27;107837;1282;72513;-81
2022/06/03 08:23:08;;;;;;;9.20;5.70;;;;;;;19.34;52.04;101332.05;107758;1282;74515;-82
2022/06/03 08:25:40;;;;;;;2.50;1.70;;;;;;;19.38;51.50;101333.52;107947;1280;60777;-80
2022/06/03 08:28:12;;;;;;;4.00;2.90;;;;;;;19.43;50.21;101331.36;107875;1281;60043;-79
2022/06/03 08:30:39;;;;;;;3.10;2.20;;;;;;;19.48;49.94;101334.93;107710;1282;76122;-79
2022/06/03 08:33:10;;;;;;;4.00;2.00;;;;;;;19.53;49.01;101329.30;107651;1281;72433;-79
2022/06/03 08:35:43;;;;;;;3.60;1.50;;;;;;;19.56;47.81;101333.54;107627;1282;73017;-79
2022/06/03 08:38:17;;;;;;;2.80;1.80;;;;;;;19.62;47.24;101324.88;107713;1282;60707;-79
2022/06/03 08:41:08;;;;;;;2.60;1.20;;;;;;;19.72;47.53;101329.34;108001;1281;60909;-79
2022/06/03 08:44:00;;;;;;;1.90;1.30;;;;;;;19.83;48.08;101326.39;108471;1280;74665;-79
2022/06/03 08:46:42;;;;;;;2.40;1.30;;;;;;;19.98;48.35;101327.59;107667;1283;70737;-80
2022/06/03 08:49:17;;;;;;;2.80;1.30;;;;;;;20.11;46.71;101327.33;107820;1281;72633;-80
2022/06/03 08:54:40;;;;;;;3.30;1.40;;;;;;;20.18;46.07;101325.60;107834;1268;153776;-86
2022/06/03 08:57:47;;;;;;;2.80;1.30;;;;;;;20.28;46.39;101324.01;108068;1277;74826;-86
2022/06/03 09:00:23;;;;;;;3.70;1.30;;;;;;;20.45;47.17;101320.66;108262;1277;70120;31
2022/06/03 09:03:00;;;;;;;3.40;1.10;;;;;;;20.60;47.09;101321.62;107973;1277;72204;-85
2022/06/03 09:05:58;;;;;;;3.30;1.50;;;;;;;20.71;45.50;101321.07;107818;1279;60856;-85
2022/06/03 09:08:57;;;;;;;2.40;1.40;;;;;;;20.75;45.62;101320.10;107988;1278;60348;-83
2022/06/03 09:11:40;;;;;;;2.60;1.50;;;;;;;20.85;45.46;101309.78;108006;1278;76579;-84
2022/06/03 09:14:12;;;;;;;3.00;1.60;;;;;;;20.92;45.09;101311.21;107940;1279;71405;-83
2022/06/03 09:16:40;;;;;;;2.70;1.90;;;;;;;21.00;44.87;101308.11;107847;1281;72980;-83
2022/06/03 09:19:17;;;;;;;2.10;1.10;;;;;;;21.04;43.94;101307.35;107853;1280;61707;-85
2022/06/03 09:21:50;;;;;;;1.50;1.00;;;;;;;21.08;44.62;101301.08;108102;1279;60347;-85
2022/06/03 09:24:29;;;;;;;1.40;0.90;;;;;;;21.03;43.78;101298.89;108093;1279;73645;-85
2022/06/03 09:26:57;;;;;;;2.60;1.50;;;;;;;21.10;43.47;101297.19;108116;1278;72372;-85
2022/06/03 09:29:25;;;;;;;1.70;1.10;;;;;;;21.17;43.86;101296.08;108082;1279;73049;-83
2022/06/03 09:32:01;;;;;;;2.00;1.30;;;;;;;21.27;43.85;101291.94;108111;1278;60696;-86
2022/06/03 09:34:48;;;;;;;13.80;10.10;;;;;;;21.41;44.05;101290.79;107490;1279;60817;-86
2022/06/03 09:37:37;;;;;;;14.10;9.00;;;;;;;21.55;44.22;101290.02;108162;1278;76788;-86
2022/06/03 09:40:09;;;;;;;3.40;1.40;;;;;;;21.74;44.24;101291.64;108052;1279;71435;-87
2022/06/03 09:42:38;;;;;;;2.20;1.10;;;;;;;21.91;43.16;101292.63;107751;1281;74403;-87
2022/06/03 09:45:06;;;;;;;7.70;1.50;;;;;;;22.01;43.24;101286.25;108243;1277;60369;-86
2022/06/03 09:47:36;;;;;;;2.50;1.40;;;;;;;22.10;41.41;101285.58;107763;1279;60600;-86
2022/06/03 09:50:03;;;;;;;2.70;1.20;;;;;;;22.16;41.74;101287.21;108212;1279;76125;-86
2022/06/03 09:52:30;;;;;;;2.50;1.30;;;;;;;22.24;41.60;101291.86;108141;1279;71548;-86
2022/06/03 09:55:05;;;;;;;3.10;1.90;;;;;;;22.32;41.87;101289.98;107755;1281;72982;-85
2022/06/03 09:57:35;;;;;;;2.70;0.80;;;;;;;22.42;42.13;101282.40;108194;1279;59289;-86
2022/06/03 10:00:17;;;;;;;3.00;1.30;;;;;;;22.48;42.48;101282.73;107706;1281;61322;-86
2022/06/03 10:02:45;;;;;;;1.20;0.90;;;;;;;22.60;42.37;101285.06;108100;1279;75909;-86
2022/06/03 10:05:16;;;;;;;3.20;2.40;;;;;;;22.69;40.97;101284.42;108194;1279;71524;-85
2022/06/03 10:07:48;;;;;;;7.00;4.60;;;;;;;22.71;40.82;101283.98;108099;1280;73115;-85
2022/06/03 10:13:06;;;;;;;2.40;1.40;;;;;;;22.74;40.78;101272.02;108236;1281;60753;-84
2022/06/03 10:15:44;;;;;;;2.40;1.30;;;;;;;22.78;41.82;101266.16;108174;1279;74997;-86
2022/06/03 10:18:44;;;;;;;2.50;1.10;;;;;;;22.86;41.98;101265.58;107976;1280;72096;-82
2022/06/03 10:21:11;;;;;;;1.70;1.20;;;;;;;22.98;40.81;101263.09;108057;1279;73016;-82
2022/06/03 10:23:45;;;;;;;3.20;1.70;;;;;;;23.04;40.07;101261.18;107895;1281;60154;-82
2022/06/03 10:26:35;;;;;;;1.90;1.40;;;;;;;23.11;40.29;101261.47;108190;1281;61625;-83
2022/06/03 10:29:18;;;;;;;2.70;1.20;;;;;;;23.27;40.62;101263.55;108042;1280;76365;-83
2022/06/03 10:31:53;;;;;;;35.10;27.20;;;;;;;23.35;39.96;101262.65;107953;1280;72484;-82
2022/06/03 10:34:33;;;;;;;2.10;1.50;;;;;;;23.41;39.78;101258.75;108111;1280;74617;-82
2022/06/03 10:37:00;;;;;;;1.80;0.90;;;;;;;23.50;39.81;101256.56;108081;1279;60677;-82
2022/06/03 10:39:27;;;;;;;1.90;1.20;;;;;;;23.58;40.21;101256.84;108169;1279;61678;-83
2022/06/03 10:42:00;;;;;;;2.10;1.40;;;;;;;23.66;39.43;101251.48;108034;1279;73714;-83
2022/06/03 10:44:43;;;;;;;2.20;1.60;;;;;;;23.61;39.15;101256.19;108043;1280;72411;-83
2022/06/03 10:47:20;;;;;;;1.90;1.30;;;;;;;23.66;39.31;101250.19;108050;1280;71735;-82
2022/06/03 10:49:51;;;;;;;1.50;1.00;;;;;;;23.82;39.81;101242.32;107923;1281;60582;-83
2022/06/03 11:01:26;;;;;;;1.60;1.00;;;;;;;24.40;38.49;101223.83;108021;1280;72914;-82
2022/06/03 11:03:53;;;;;;;2.90;1.10;;;;;;;24.50;37.58;101222.66;107857;1280;60357;-82
2022/06/03 11:06:26;;;;;;;1.90;1.00;;;;;;;24.54;37.64;101219.23;107865;1281;60545;-82
2022/06/03 11:09:00;;;;;;;3.10;1.50;;;;;;;24.65;38.18;101222.73;108069;1279;75936;-82
2022/06/03 11:11:39;;;;;;;2.00;1.20;;;;;;;24.76;37.37;101218.00;107886;1281;71499;-82
2022/06/03 11:14:20;;;;;;;2.20;1.20;;;;;;;24.82;36.59;101213.55;107836;1280;73399;-82
2022/06/03 11:16:53;;;;;;;3.10;1.30;;;;;;;24.88;36.68;101205.46;108047;1279;61347;-82
2022/06/03 11:19:20;;;;;;;2.40;1.00;;;;;;;25.00;37.67;101207.39;107990;1280;60891;-82
2022/06/03 11:21:47;;;;;;;1.50;0.90;;;;;;;25.05;36.87;101203.86;108010;1280;75088;-82
2022/06/03 11:24:14;;;;;;;3.20;1.30;;;;;;;25.13;37.04;101199.14;107983;1279;73254;-81
2022/06/03 11:26:46;;;;;;;1.80;1.10;;;;;;;25.27;36.49;101193.46;107674;1281;73077;-82
2022/06/03 11:29:24;;;;;;;1.80;1.10;;;;;;;25.35;35.81;101190.58;107991;1280;60656;-82
2022/06/03 11:31:53;;;;;;;1.80;1.10;;;;;;;25.42;36.62;101189.48;108000;1281;60597;-82
2022/06/03 11:34:38;;;;;;;2.40;1.30;;;;;;;25.43;35.65;101184.00;107811;1279;75604;-82
2022/06/03 11:37:13;;;;;;;2.30;1.20;;;;;;;25.39;35.36;101181.21;107956;1280;72351;-82
2022/06/03 11:39:48;;;;;;;3.00;1.20;;;;;;;25.47;36.04;101182.45;107805;1281;74463;-82
2022/06/03 11:42:17;;;;;;;4.70;3.30;;;;;;;25.52;35.91;101178.77;108416;1279;59168;-82
2022/06/03 11:44:58;;;;;;;4.10;3.40;;;;;;;25.48;35.06;101173.23;107962;1280;60196;-82
2022/06/03 11:47:37;;;;;;;1.30;0.90;;;;;;;25.53;36.08;101168.47;107971;1280;75005;-82
2022/06/03 11:50:06;;;;;;;7.50;5.50;;;;;;;25.65;36.22;101171.30;108030;1280;71550;-82
2022/06/03 11:52:33;;;;;;;2.60;1.10;;;;;;;25.70;35.02;101170.46;107985;1279;72438;-82
2022/06/03 11:55:00;;;;;;;4.60;2.80;;;;;;;25.77;34.82;101162.44;107880;1281;60604;-83
2022/06/03 11:57:28;;;;;;;2.20;1.00;;;;;;;25.87;35.38;101158.45;107941;1280;60695;-83
2022/06/03 12:00:04;;;;;;;3.40;1.10;;;;;;;25.99;35.33;101156.35;108065;1279;74609;-82
2022/06/03 12:02:41;;;;;;;1.60;0.90;;;;;;;26.15;34.86;101150.31;107907;1281;70254;-82
2022/06/03 12:05:27;;;;;;;2.30;1.10;;;;;;;26.40;34.94;101146.73;107996;1280;72732;-81
2022/06/03 12:08:05;;;;;;;39.40;32.90;;;;;;;26.83;34.14;101143.27;107891;1280;60694;-82
2022/06/03 12:10:44;;;;;;;2.80;0.90;;;;;;;27.24;32.67;101140.30;108023;1279;61418;-82
2022/06/03 12:13:17;;;;;;;1.40;1.00;;;;;;;27.56;32.44;101140.53;107994;1279;75047;-82
2022/06/03 12:15:58;;;;;;;3.10;1.30;;;;;;;27.94;31.82;101139.63;108130;1279;71352;-82
2022/06/03 12:18:31;;;;;;;4.10;2.20;;;;;;;28.39;31.27;101133.85;107979;1279;73084;-82
2022/06/03 12:21:14;;;;;;;2.20;1.00;;;;;;;28.80;30.79;101131.73;108066;1279;61973;-83
2022/06/03 12:23:43;;;;;;;2.00;0.90;;;;;;;29.16;30.16;101131.67;108066;1280;60653;-83
2022/06/03 12:26:18;;;;;;;2.10;1.00;;;;;;;29.50;29.06;101129.95;107924;1281;75623;-84
2022/06/03 12:28:49;;;;;;;2.80;1.00;;;;;;;29.67;28.89;101120.77;108038;1280;72193;-83
2022/06/03 12:31:40;;;;;;;1.60;0.90;;;;;;;29.87;28.71;101114.07;108019;1281;73614;-83
2022/06/03 12:34:26;;;;;;;3.30;2.50;;;;;;;30.15;28.79;101109.78;108156;1278;59797;-82
2022/06/03 12:37:00;;;;;;;2.20;1.10;;;;;;;30.22;28.17;101109.64;108137;1279;60900;-82
2022/06/03 12:39:58;;;;;;;4.90;3.40;;;;;;;30.71;28.49;101115.03;107982;1280;74709;-82
2022/06/03 12:42:28;;;;;;;3.10;2.10;;;;;;;30.93;26.80;101112.65;108088;1280;72745;-83
2022/06/03 12:44:57;;;;;;;2.60;1.00;;;;;;;30.73;26.63;101105.86;108079;1280;73942;-79
2022/06/03 12:47:43;;;;;;;4.70;1.00;;;;;;;30.75;27.26;101101.17;108018;1279;61984;-79
2022/06/03 12:50:24;;;;;;;2.40;0.80;;;;;;;31.29;26.89;101100.73;108186;1279;60732;-79
2022/06/03 12:52:58;;;;;;;1.40;0.70;;;;;;;31.86;26.62;101104.42;107910;1281;77871;-79
2022/06/03 12:55:28;;;;;;;2.40;0.80;;;;;;;32.51;24.92;101101.86;108196;1278;71630;-82
2022/06/03 12:58:16;;;;;;;1.20;0.70;;;;;;;33.25;24.47;101092.38;107979;1280;73001;-79
2022/06/03 13:00:52;;;;;;;2.80;1.40;;;;;;;33.83;23.57;101090.25;108056;1279;61706;-80
2022/06/03 13:03:25;;;;;;;4.20;1.20;;;;;;;34.59;23.33;101084.81;107933;1279;61715;-79
2022/06/03 13:05:54;;;;;;;5.80;1.50;;;;;;;35.90;22.18;101083.80;107856;1280;75120;-78
2022/06/03 13:08:27;;;;;;;4.40;2.90;;;;;;;36.99;20.87;101081.14;107879;1279;71437;-78
2022/06/03 13:11:22;;;;;;;4.30;0.90;;;;;;;37.85;19.78;101077.79;107937;1280;74415;-78
2022/06/03 13:13:54;;;;;;;0.60;0.40;;;;;;;38.15;18.23;101073.13;107978;1281;60877;-78
2022/06/03 13:16:31;;;;;;;1.40;0.90;;;;;;;38.10;19.00;101076.14;108114;1280;60628;-79
2022/06/03 13:19:19;;;;;;;1.00;0.60;;;;;;;38.24;18.48;101073.68;108058;1280;76131;-80
2022/06/03 13:22:03;;;;;;;1.20;0.70;;;;;;;38.25;18.70;101073.08;107888;1281;72868;-80
2022/06/03 13:24:35;;;;;;;4.20;1.50;;;;;;;37.96;18.77;101069.27;108016;1281;73332;-78
2022/06/03 13:27:24;;;;;;;1.60;1.20;;;;;;;37.31;19.06;101061.15;108078;1281;59953;-80
2022/06/03 13:29:56;;;;;;;2.60;0.80;;;;;;;36.68;19.53;101063.14;108197;1279;59531;-81
2022/06/03 13:32:35;;;;;;;7.60;4.20;;;;;;;36.10;20.19;101062.20;107978;1281;74993;-82
2022/06/03 13:35:10;;;;;;;1.40;0.70;;;;;;;35.62;20.70;101058.44;108118;1280;71157;-81
2022/06/03 13:37:46;;;;;;;2.00;0.60;;;;;;;35.01;21.19;101057.94;108053;1281;73017;-80
2022/06/03 13:40:30;;;;;;;3.10;0.90;;;;;;;34.63;21.56;101058.08;107975;1281;60509;-83
2022/06/03 13:42:59;;;;;;;1.60;0.50;;;;;;;34.50;21.59;101056.65;108032;1281;61365;-80
2022/06/03 13:45:51;;;;;;;2.10;0.90;;;;;;;34.63;22.20;101056.04;107958;1280;75412;-80
2022/06/03 13:48:31;;;;;;;3.10;0.70;;;;;;;35.00;21.71;101059.14;108028;1279;72802;-80
2022/06/03 13:51:33;;;;;;;2.90;0.90;;;;;;;34.81;21.19;101058.60;108056;1281;74254;-79
2022/06/03 13:54:24;;;;;;;0.90;0.50;;;;;;;33.86;21.52;101054.43;108112;1280;62253;-79
2022/06/03 13:56:56;;;;;;;2.80;1.70;;;;;;;33.01;23.11;101053.52;108009;1279;60357;-79
2022/06/03 13:59:25;;;;;;;1.60;0.80;;;;;;;32.44;23.50;101052.49;108060;1280;76233;-80